sensor_id;sensor_type;location;lat;lon;timestamp;P1;durP1;ratioP1;P2;durP2;ratioP2
48789;SDS011;41718;51.980;5.734;2023-03-01T00:02:23;5.45;;;4.80;;
48789;SDS011;41718;51.980;5.734;2023-03-01T00:07:27;5.05;;;4.53;;
48789;SDS011;41718;51.980;5.734;2023-03-01T00:12:34;8.00;;;5.25;;
48789;SDS011;41718;51.980;5.734;2023-03-01T00:18:00;8.10;;;5.05;;
48789;SDS011;41718;51.980;5.734;2023-03-01T00:23:01;8.23;;;5.60;;
48789;SDS011;41718;51.980;5.734;2023-03-01T00:28:23;6.60;;;4.78;;
48789;SDS011;41718;51.980;5.734;2023-03-01T00:44:38;7.47;;;5.53;;
48789;SDS011;41718;51.980;5.734;2023-03-01T00:49:56;7.65;;;5.53;;
48789;SDS011;41718;51.980;5.734;2023-03-01T00:54:58;7.88;;;5.70;;
48789;SDS011;41718;51.980;5.734;2023-03-01T01:00:21;7.63;;;5.80;;
48789;SDS011;41718;51.980;5.734;2023-03-01T01:05:41;10.05;;;5.93;;
48789;SDS011;41718;51.980;5.734;2023-03-01T01:16:34;10.13;;;5.97;;
48789;SDS011;41718;51.980;5.734;2023-03-01T01:21:43;8.57;;;6.35;;
48789;SDS011;41718;51.980;5.734;2023-03-01T01:26:48;11.18;;;6.63;;
48789;SDS011;41718;51.980;5.734;2023-03-01T01:31:56;11.30;;;6.47;;
48789;SDS011;41718;51.980;5.734;2023-03-01T01:37:05;9.15;;;6.10;;
48789;SDS011;41718;51.980;5.734;2023-03-01T01:42:35;8.85;;;5.95;;
48789;SDS011;41718;51.980;5.734;2023-03-01T01:47:57;12.85;;;7.28;;
48789;SDS011;41718;51.980;5.734;2023-03-01T01:53:44;7.70;;;6.38;;
48789;SDS011;41718;51.980;5.734;2023-03-01T02:05:22;11.32;;;6.60;;
48789;SDS011;41718;51.980;5.734;2023-03-01T02:23:08;13.55;;;7.57;;
48789;SDS011;41718;51.980;5.734;2023-03-01T02:28:33;11.32;;;6.88;;
48789;SDS011;41718;51.980;5.734;2023-03-01T02:33:52;10.15;;;6.68;;
48789;SDS011;41718;51.980;5.734;2023-03-01T02:45:49;9.30;;;5.95;;
48789;SDS011;41718;51.980;5.734;2023-03-01T02:57:01;8.73;;;6.30;;
48789;SDS011;41718;51.980;5.734;2023-03-01T03:02:23;11.40;;;6.80;;
48789;SDS011;41718;51.980;5.734;2023-03-01T03:07:45;9.35;;;6.88;;
48789;SDS011;41718;51.980;5.734;2023-03-01T03:13:21;8.17;;;5.97;;
48789;SDS011;41718;51.980;5.734;2023-03-01T03:18:34;14.60;;;7.68;;
48789;SDS011;41718;51.980;5.734;2023-03-01T03:30:23;10.57;;;7.03;;
48789;SDS011;41718;51.980;5.734;2023-03-01T03:36:03;7.82;;;6.30;;
48789;SDS011;41718;51.980;5.734;2023-03-01T03:41:07;7.78;;;5.90;;
48789;SDS011;41718;51.980;5.734;2023-03-01T03:46:18;9.52;;;6.45;;
48789;SDS011;41718;51.980;5.734;2023-03-01T03:51:20;10.05;;;6.63;;
48789;SDS011;41718;51.980;5.734;2023-03-01T03:56:23;9.18;;;6.32;;
48789;SDS011;41718;51.980;5.734;2023-03-01T04:01:29;8.02;;;6.28;;
48789;SDS011;41718;51.980;5.734;2023-03-01T04:06:37;14.90;;;7.53;;
48789;SDS011;41718;51.980;5.734;2023-03-01T04:11:54;12.00;;;7.28;;
48789;SDS011;41718;51.980;5.734;2023-03-01T04:22:28;10.93;;;7.05;;
48789;SDS011;41718;51.980;5.734;2023-03-01T04:27:36;10.20;;;7.03;;
48789;SDS011;41718;51.980;5.734;2023-03-01T04:38:58;10.25;;;6.60;;
48789;SDS011;41718;51.980;5.734;2023-03-01T04:44:02;11.88;;;6.85;;
48789;SDS011;41718;51.980;5.734;2023-03-01T04:49:35;14.23;;;7.38;;
48789;SDS011;41718;51.980;5.734;2023-03-01T05:00:02;9.27;;;7.05;;
48789;SDS011;41718;51.980;5.734;2023-03-01T05:05:45;10.00;;;6.47;;
48789;SDS011;41718;51.980;5.734;2023-03-01T05:11:17;8.95;;;6.88;;
48789;SDS011;41718;51.980;5.734;2023-03-01T05:16:46;11.48;;;7.43;;
48789;SDS011;41718;51.980;5.734;2023-03-01T05:21:47;8.95;;;6.25;;
48789;SDS011;41718;51.980;5.734;2023-03-01T05:27:08;11.75;;;7.50;;
48789;SDS011;41718;51.980;5.734;2023-03-01T05:32:09;9.23;;;6.53;;
48789;SDS011;41718;51.980;5.734;2023-03-01T05:37:57;10.77;;;6.75;;
48789;SDS011;41718;51.980;5.734;2023-03-01T05:48:26;7.88;;;5.90;;
48789;SDS011;41718;51.980;5.734;2023-03-01T05:53:31;11.57;;;6.50;;
48789;SDS011;41718;51.980;5.734;2023-03-01T05:58:32;12.25;;;6.22;;
48789;SDS011;41718;51.980;5.734;2023-03-01T06:03:34;12.95;;;7.10;;
48789;SDS011;41718;51.980;5.734;2023-03-01T06:08:35;11.32;;;6.63;;
48789;SDS011;41718;51.980;5.734;2023-03-01T06:13:41;9.77;;;7.30;;
48789;SDS011;41718;51.980;5.734;2023-03-01T06:18:46;11.02;;;7.53;;
48789;SDS011;41718;51.980;5.734;2023-03-01T06:23:48;10.13;;;7.25;;
48789;SDS011;41718;51.980;5.734;2023-03-01T06:28:58;14.75;;;8.52;;
48789;SDS011;41718;51.980;5.734;2023-03-01T06:34:20;11.90;;;8.15;;
48789;SDS011;41718;51.980;5.734;2023-03-01T06:39:25;12.95;;;7.50;;
48789;SDS011;41718;51.980;5.734;2023-03-01T06:50:28;11.52;;;6.85;;
48789;SDS011;41718;51.980;5.734;2023-03-01T07:01:07;11.52;;;7.25;;
48789;SDS011;41718;51.980;5.734;2023-03-01T07:06:18;11.55;;;7.28;;
48789;SDS011;41718;51.980;5.734;2023-03-01T07:11:21;11.65;;;6.82;;
48789;SDS011;41718;51.980;5.734;2023-03-01T07:16:27;10.70;;;7.32;;
48789;SDS011;41718;51.980;5.734;2023-03-01T07:21:32;15.25;;;6.88;;
48789;SDS011;41718;51.980;5.734;2023-03-01T07:26:36;10.40;;;7.28;;
48789;SDS011;41718;51.980;5.734;2023-03-01T07:31:50;13.77;;;8.18;;
48789;SDS011;41718;51.980;5.734;2023-03-01T07:37:02;10.13;;;7.25;;
48789;SDS011;41718;51.980;5.734;2023-03-01T07:42:11;13.40;;;8.60;;
48789;SDS011;41718;51.980;5.734;2023-03-01T07:47:13;16.73;;;8.70;;
48789;SDS011;41718;51.980;5.734;2023-03-01T07:52:21;30.70;;;12.40;;
48789;SDS011;41718;51.980;5.734;2023-03-01T07:58:03;20.00;;;10.73;;
48789;SDS011;41718;51.980;5.734;2023-03-01T08:03:16;28.83;;;12.82;;
48789;SDS011;41718;51.980;5.734;2023-03-01T08:08:16;23.75;;;13.82;;
48789;SDS011;41718;51.980;5.734;2023-03-01T08:13:25;32.92;;;15.13;;
48789;SDS011;41718;51.980;5.734;2023-03-01T08:18:27;24.45;;;14.18;;
48789;SDS011;41718;51.980;5.734;2023-03-01T08:30:01;26.63;;;15.65;;
48789;SDS011;41718;51.980;5.734;2023-03-01T08:41:27;23.05;;;14.02;;
48789;SDS011;41718;51.980;5.734;2023-03-01T08:46:56;24.75;;;14.75;;
48789;SDS011;41718;51.980;5.734;2023-03-01T08:52:10;20.38;;;13.18;;
48789;SDS011;41718;51.980;5.734;2023-03-01T08:57:29;18.83;;;11.77;;
48789;SDS011;41718;51.980;5.734;2023-03-01T09:02:31;17.70;;;9.32;;
48789;SDS011;41718;51.980;5.734;2023-03-01T09:07:41;13.25;;;8.82;;
48789;SDS011;41718;51.980;5.734;2023-03-01T09:12:58;11.38;;;8.10;;
48789;SDS011;41718;51.980;5.734;2023-03-01T09:24:03;10.60;;;7.47;;
48789;SDS011;41718;51.980;5.734;2023-03-01T09:29:56;9.35;;;5.82;;
48789;SDS011;41718;51.980;5.734;2023-03-01T09:35:17;8.32;;;5.32;;
48789;SDS011;41718;51.980;5.734;2023-03-01T09:40:35;8.52;;;5.00;;
48789;SDS011;41718;51.980;5.734;2023-03-01T09:46:26;8.60;;;4.97;;
48789;SDS011;41718;51.980;5.734;2023-03-01T09:51:35;8.73;;;5.60;;
48789;SDS011;41718;51.980;5.734;2023-03-01T10:03:24;6.57;;;3.95;;
48789;SDS011;41718;51.980;5.734;2023-03-01T10:31:03;7.47;;;5.05;;
48789;SDS011;41718;51.980;5.734;2023-03-01T10:36:25;7.72;;;5.32;;
48789;SDS011;41718;51.980;5.734;2023-03-01T10:41:40;7.18;;;5.25;;
48789;SDS011;41718;51.980;5.734;2023-03-01T10:53:56;9.77;;;6.10;;
48789;SDS011;41718;51.980;5.734;2023-03-01T11:05:34;8.02;;;6.00;;
48789;SDS011;41718;51.980;5.734;2023-03-01T11:10:46;11.55;;;5.25;;
48789;SDS011;41718;51.980;5.734;2023-03-01T11:15:59;11.57;;;5.78;;
48789;SDS011;41718;51.980;5.734;2023-03-01T11:21:08;47.67;;;25.50;;
48789;SDS011;41718;51.980;5.734;2023-03-01T11:26:18;6.75;;;4.25;;
48789;SDS011;41718;51.980;5.734;2023-03-01T11:31:54;7.00;;;4.35;;
48789;SDS011;41718;51.980;5.734;2023-03-01T11:37:43;8.73;;;4.03;;
48789;SDS011;41718;51.980;5.734;2023-03-01T12:06:01;6.35;;;4.22;;
48789;SDS011;41718;51.980;5.734;2023-03-01T12:17:41;5.40;;;4.10;;
48789;SDS011;41718;51.980;5.734;2023-03-01T12:40:03;5.25;;;4.20;;
48789;SDS011;41718;51.980;5.734;2023-03-01T12:50:51;7.45;;;4.28;;
48789;SDS011;41718;51.980;5.734;2023-03-01T12:55:56;4.25;;;3.65;;
48789;SDS011;41718;51.980;5.734;2023-03-01T13:06:44;6.93;;;3.92;;
48789;SDS011;41718;51.980;5.734;2023-03-01T13:17:52;6.60;;;4.97;;
48789;SDS011;41718;51.980;5.734;2023-03-01T13:33:44;6.25;;;4.90;;
48789;SDS011;41718;51.980;5.734;2023-03-01T13:39:38;7.72;;;5.85;;
48789;SDS011;41718;51.980;5.734;2023-03-01T13:44:53;9.27;;;4.85;;
48789;SDS011;41718;51.980;5.734;2023-03-01T13:50:00;6.40;;;4.95;;
48789;SDS011;41718;51.980;5.734;2023-03-01T13:55:05;10.40;;;5.20;;
48789;SDS011;41718;51.980;5.734;2023-03-01T14:00:38;6.38;;;4.47;;
48789;SDS011;41718;51.980;5.734;2023-03-01T14:16:57;6.20;;;4.45;;
48789;SDS011;41718;51.980;5.734;2023-03-01T14:27:37;7.75;;;4.85;;
48789;SDS011;41718;51.980;5.734;2023-03-01T14:32:42;6.38;;;4.25;;
48789;SDS011;41718;51.980;5.734;2023-03-01T14:37:58;5.20;;;4.38;;
48789;SDS011;41718;51.980;5.734;2023-03-01T14:43:11;11.30;;;4.87;;
48789;SDS011;41718;51.980;5.734;2023-03-01T14:48:19;12.70;;;5.30;;
48789;SDS011;41718;51.980;5.734;2023-03-01T14:53:23;7.03;;;4.18;;
48789;SDS011;41718;51.980;5.734;2023-03-01T14:58:28;7.15;;;4.40;;
48789;SDS011;41718;51.980;5.734;2023-03-01T15:08:41;6.32;;;4.22;;
48789;SDS011;41718;51.980;5.734;2023-03-01T15:13:47;4.10;;;3.38;;
48789;SDS011;41718;51.980;5.734;2023-03-01T15:18:50;9.80;;;3.95;;
48789;SDS011;41718;51.980;5.734;2023-03-01T15:23:57;6.30;;;3.75;;
48789;SDS011;41718;51.980;5.734;2023-03-01T15:29:02;6.88;;;4.40;;
48789;SDS011;41718;51.980;5.734;2023-03-01T15:34:21;7.70;;;4.05;;
48789;SDS011;41718;51.980;5.734;2023-03-01T15:39:38;5.30;;;3.58;;
48789;SDS011;41718;51.980;5.734;2023-03-01T15:44:44;5.97;;;3.70;;
48789;SDS011;41718;51.980;5.734;2023-03-01T15:49:46;4.90;;;3.47;;
48789;SDS011;41718;51.980;5.734;2023-03-01T15:55:03;6.10;;;3.33;;
48789;SDS011;41718;51.980;5.734;2023-03-01T16:00:19;4.03;;;2.95;;
48789;SDS011;41718;51.980;5.734;2023-03-01T16:05:22;4.75;;;3.47;;
48789;SDS011;41718;51.980;5.734;2023-03-01T16:10:28;3.72;;;2.85;;
48789;SDS011;41718;51.980;5.734;2023-03-01T16:15:32;6.07;;;3.30;;
48789;SDS011;41718;51.980;5.734;2023-03-01T16:20:36;4.57;;;3.03;;
48789;SDS011;41718;51.980;5.734;2023-03-01T16:25:37;6.15;;;4.35;;
48789;SDS011;41718;51.980;5.734;2023-03-01T16:30:39;5.97;;;3.50;;
48789;SDS011;41718;51.980;5.734;2023-03-01T16:35:41;5.18;;;3.60;;
48789;SDS011;41718;51.980;5.734;2023-03-01T16:40:46;6.45;;;3.60;;
48789;SDS011;41718;51.980;5.734;2023-03-01T16:45:50;6.00;;;3.53;;
48789;SDS011;41718;51.980;5.734;2023-03-01T16:50:55;7.28;;;5.47;;
48789;SDS011;41718;51.980;5.734;2023-03-01T16:55:59;10.73;;;5.60;;
48789;SDS011;41718;51.980;5.734;2023-03-01T17:06:17;6.90;;;5.00;;
48789;SDS011;41718;51.980;5.734;2023-03-01T17:11:21;6.03;;;4.00;;
48789;SDS011;41718;51.980;5.734;2023-03-01T17:16:23;12.60;;;6.28;;
48789;SDS011;41718;51.980;5.734;2023-03-01T17:27:56;11.02;;;6.72;;
48789;SDS011;41718;51.980;5.734;2023-03-01T17:32:58;8.98;;;6.03;;
48789;SDS011;41718;51.980;5.734;2023-03-01T17:38:00;8.65;;;6.10;;
48789;SDS011;41718;51.980;5.734;2023-03-01T17:43:07;6.35;;;5.30;;
48789;SDS011;41718;51.980;5.734;2023-03-01T17:48:09;10.88;;;5.72;;
48789;SDS011;41718;51.980;5.734;2023-03-01T17:53:11;12.02;;;7.45;;
48789;SDS011;41718;51.980;5.734;2023-03-01T17:58:14;10.02;;;6.85;;
48789;SDS011;41718;51.980;5.734;2023-03-01T18:03:16;10.27;;;6.57;;
48789;SDS011;41718;51.980;5.734;2023-03-01T18:08:22;10.48;;;7.32;;
48789;SDS011;41718;51.980;5.734;2023-03-01T18:13:25;10.93;;;7.97;;
48789;SDS011;41718;51.980;5.734;2023-03-01T18:18:36;11.80;;;8.25;;
48789;SDS011;41718;51.980;5.734;2023-03-01T18:23:38;21.27;;;13.57;;
48789;SDS011;41718;51.980;5.734;2023-03-01T18:28:42;18.05;;;13.38;;
48789;SDS011;41718;51.980;5.734;2023-03-01T18:34:01;38.65;;;24.95;;
48789;SDS011;41718;51.980;5.734;2023-03-01T18:39:12;17.33;;;10.80;;
48789;SDS011;41718;51.980;5.734;2023-03-01T18:44:17;6.13;;;4.70;;
48789;SDS011;41718;51.980;5.734;2023-03-01T18:49:43;6.55;;;5.07;;
48789;SDS011;41718;51.980;5.734;2023-03-01T18:54:53;9.52;;;4.90;;
48789;SDS011;41718;51.980;5.734;2023-03-01T19:00:00;8.40;;;6.30;;
48789;SDS011;41718;51.980;5.734;2023-03-01T19:05:03;10.50;;;5.83;;
48789;SDS011;41718;51.980;5.734;2023-03-01T19:10:06;10.98;;;7.93;;
48789;SDS011;41718;51.980;5.734;2023-03-01T19:15:10;9.90;;;8.48;;
48789;SDS011;41718;51.980;5.734;2023-03-01T19:20:15;10.10;;;6.45;;
48789;SDS011;41718;51.980;5.734;2023-03-01T19:25:20;10.07;;;5.70;;
48789;SDS011;41718;51.980;5.734;2023-03-01T19:30:21;7.38;;;5.15;;
48789;SDS011;41718;51.980;5.734;2023-03-01T19:35:24;12.57;;;7.30;;
48789;SDS011;41718;51.980;5.734;2023-03-01T19:40:29;9.13;;;5.57;;
48789;SDS011;41718;51.980;5.734;2023-03-01T19:45:49;6.25;;;5.28;;
48789;SDS011;41718;51.980;5.734;2023-03-01T19:57:16;10.82;;;6.68;;
48789;SDS011;41718;51.980;5.734;2023-03-01T20:02:18;10.48;;;6.35;;
48789;SDS011;41718;51.980;5.734;2023-03-01T20:07:32;13.13;;;8.73;;
48789;SDS011;41718;51.980;5.734;2023-03-01T20:12:36;39.70;;;22.50;;
48789;SDS011;41718;51.980;5.734;2023-03-01T20:17:44;18.52;;;11.40;;
48789;SDS011;41718;51.980;5.734;2023-03-01T20:22:53;16.02;;;10.35;;
48789;SDS011;41718;51.980;5.734;2023-03-01T20:28:06;16.00;;;10.20;;
48789;SDS011;41718;51.980;5.734;2023-03-01T20:33:22;8.85;;;5.82;;
48789;SDS011;41718;51.980;5.734;2023-03-01T20:38:26;11.80;;;7.72;;
48789;SDS011;41718;51.980;5.734;2023-03-01T20:43:34;14.57;;;8.68;;
48789;SDS011;41718;51.980;5.734;2023-03-01T20:48:42;12.00;;;7.90;;
48789;SDS011;41718;51.980;5.734;2023-03-01T20:53:47;9.13;;;6.15;;
48789;SDS011;41718;51.980;5.734;2023-03-01T20:58:50;13.63;;;6.63;;
48789;SDS011;41718;51.980;5.734;2023-03-01T21:03:54;9.10;;;6.80;;
48789;SDS011;41718;51.980;5.734;2023-03-01T21:08:57;8.40;;;5.72;;
48789;SDS011;41718;51.980;5.734;2023-03-01T21:14:01;10.18;;;7.15;;
48789;SDS011;41718;51.980;5.734;2023-03-01T21:19:05;9.38;;;7.05;;
48789;SDS011;41718;51.980;5.734;2023-03-01T21:24:09;9.50;;;6.15;;
48789;SDS011;41718;51.980;5.734;2023-03-01T21:29:15;8.38;;;5.40;;
48789;SDS011;41718;51.980;5.734;2023-03-01T21:34:16;12.65;;;7.18;;
48789;SDS011;41718;51.980;5.734;2023-03-01T21:39:19;12.10;;;5.88;;
48789;SDS011;41718;51.980;5.734;2023-03-01T21:44:24;7.82;;;6.60;;
48789;SDS011;41718;51.980;5.734;2023-03-01T21:49:27;9.57;;;6.72;;
48789;SDS011;41718;51.980;5.734;2023-03-01T21:54:29;8.23;;;5.30;;
48789;SDS011;41718;51.980;5.734;2023-03-01T21:59:32;8.10;;;6.18;;
48789;SDS011;41718;51.980;5.734;2023-03-01T22:04:34;10.55;;;6.40;;
48789;SDS011;41718;51.980;5.734;2023-03-01T22:09:37;8.90;;;5.63;;
48789;SDS011;41718;51.980;5.734;2023-03-01T22:14:39;9.77;;;7.30;;
48789;SDS011;41718;51.980;5.734;2023-03-01T22:19:42;10.00;;;7.18;;
48789;SDS011;41718;51.980;5.734;2023-03-01T22:24:46;14.18;;;9.07;;
48789;SDS011;41718;51.980;5.734;2023-03-01T22:29:48;12.60;;;7.68;;
48789;SDS011;41718;51.980;5.734;2023-03-01T22:34:49;15.00;;;8.02;;
48789;SDS011;41718;51.980;5.734;2023-03-01T22:39:51;13.43;;;7.95;;
48789;SDS011;41718;51.980;5.734;2023-03-01T22:44:54;11.88;;;6.93;;
48789;SDS011;41718;51.980;5.734;2023-03-01T22:49:57;11.13;;;6.53;;
48789;SDS011;41718;51.980;5.734;2023-03-01T22:55:00;17.63;;;7.32;;
48789;SDS011;41718;51.980;5.734;2023-03-01T23:00:06;12.10;;;7.53;;
48789;SDS011;41718;51.980;5.734;2023-03-01T23:05:14;11.85;;;8.45;;
48789;SDS011;41718;51.980;5.734;2023-03-01T23:15:23;14.05;;;8.18;;
48789;SDS011;41718;51.980;5.734;2023-03-01T23:20:26;17.40;;;9.82;;
48789;SDS011;41718;51.980;5.734;2023-03-01T23:25:31;16.58;;;9.98;;
48789;SDS011;41718;51.980;5.734;2023-03-01T23:30:41;19.27;;;12.20;;
48789;SDS011;41718;51.980;5.734;2023-03-01T23:35:49;22.70;;;13.52;;
48789;SDS011;41718;51.980;5.734;2023-03-01T23:40:52;29.23;;;17.27;;
48789;SDS011;41718;51.980;5.734;2023-03-01T23:45:55;23.95;;;15.57;;
48789;SDS011;41718;51.980;5.734;2023-03-01T23:51:01;29.77;;;14.30;;
48789;SDS011;41718;51.980;5.734;2023-03-01T23:56:05;34.80;;;18.75;;
